sensor_id;sensor_type;location;lat;lon;timestamp;P1;durP1;ratioP1;P2;durP2;ratioP2
58982;SDS011;44771;49.982;8.560;2024-03-08T00:01:49;26.55;;;24.52;;
58982;SDS011;44771;49.982;8.560;2024-03-08T00:06:50;29.45;;;27.00;;
58982;SDS011;44771;49.982;8.560;2024-03-08T00:11:54;29.73;;;26.73;;
58982;SDS011;44771;49.982;8.560;2024-03-08T00:16:56;28.10;;;25.77;;
58982;SDS011;44771;49.982;8.560;2024-03-08T00:21:57;30.90;;;27.80;;
58982;SDS011;44771;49.982;8.560;2024-03-08T00:27:00;30.08;;;27.50;;
58982;SDS011;44771;49.982;8.560;2024-03-08T00:32:02;30.02;;;27.52;;
58982;SDS011;44771;49.982;8.560;2024-03-08T00:37:04;26.95;;;25.12;;
58982;SDS011;44771;49.982;8.560;2024-03-08T00:42:08;29.33;;;26.92;;
58982;SDS011;44771;49.982;8.560;2024-03-08T00:47:10;28.70;;;26.12;;
58982;SDS011;44771;49.982;8.560;2024-03-08T00:52:12;28.35;;;26.23;;
58982;SDS011;44771;49.982;8.560;2024-03-08T00:57:15;29.02;;;26.12;;
58982;SDS011;44771;49.982;8.560;2024-03-08T01:02:17;28.85;;;26.58;;
58982;SDS011;44771;49.982;8.560;2024-03-08T01:07:19;29.77;;;27.15;;
58982;SDS011;44771;49.982;8.560;2024-03-08T01:12:22;28.75;;;26.15;;
58982;SDS011;44771;49.982;8.560;2024-03-08T01:17:24;26.02;;;24.52;;
58982;SDS011;44771;49.982;8.560;2024-03-08T01:22:25;27.17;;;24.95;;
58982;SDS011;44771;49.982;8.560;2024-03-08T01:27:28;28.23;;;25.67;;
58982;SDS011;44771;49.982;8.560;2024-03-08T01:32:30;28.98;;;26.55;;
58982;SDS011;44771;49.982;8.560;2024-03-08T01:37:32;28.80;;;26.58;;
58982;SDS011;44771;49.982;8.560;2024-03-08T01:42:35;30.27;;;27.45;;
58982;SDS011;44771;49.982;8.560;2024-03-08T01:47:37;29.37;;;27.13;;
58982;SDS011;44771;49.982;8.560;2024-03-08T01:52:40;29.20;;;26.55;;
58982;SDS011;44771;49.982;8.560;2024-03-08T01:57:43;28.77;;;26.37;;
58982;SDS011;44771;49.982;8.560;2024-03-08T02:02:45;30.05;;;27.73;;
58982;SDS011;44771;49.982;8.560;2024-03-08T02:07:48;28.65;;;26.37;;
58982;SDS011;44771;49.982;8.560;2024-03-08T02:12:51;30.20;;;27.92;;
58982;SDS011;44771;49.982;8.560;2024-03-08T02:17:53;29.85;;;27.15;;
58982;SDS011;44771;49.982;8.560;2024-03-08T02:22:56;31.42;;;28.73;;
58982;SDS011;44771;49.982;8.560;2024-03-08T02:27:58;30.27;;;27.67;;
58982;SDS011;44771;49.982;8.560;2024-03-08T02:33:00;28.80;;;26.23;;
58982;SDS011;44771;49.982;8.560;2024-03-08T02:38:03;28.52;;;26.15;;
58982;SDS011;44771;49.982;8.560;2024-03-08T02:43:05;28.27;;;25.98;;
58982;SDS011;44771;49.982;8.560;2024-03-08T02:48:08;28.42;;;26.42;;
58982;SDS011;44771;49.982;8.560;2024-03-08T02:53:11;28.12;;;26.23;;
58982;SDS011;44771;49.982;8.560;2024-03-08T02:58:14;27.13;;;25.35;;
58982;SDS011;44771;49.982;8.560;2024-03-08T03:03:16;30.67;;;28.45;;
58982;SDS011;44771;49.982;8.560;2024-03-08T03:08:19;27.98;;;25.88;;
58982;SDS011;44771;49.982;8.560;2024-03-08T03:13:21;31.70;;;29.23;;
58982;SDS011;44771;49.982;8.560;2024-03-08T03:18:23;31.20;;;28.40;;
58982;SDS011;44771;49.982;8.560;2024-03-08T03:23:26;31.17;;;28.45;;
58982;SDS011;44771;49.982;8.560;2024-03-08T03:28:28;30.12;;;27.42;;
58982;SDS011;44771;49.982;8.560;2024-03-08T03:33:30;29.70;;;27.17;;
58982;SDS011;44771;49.982;8.560;2024-03-08T03:38:33;28.42;;;25.88;;
58982;SDS011;44771;49.982;8.560;2024-03-08T03:43:35;28.65;;;26.65;;
58982;SDS011;44771;49.982;8.560;2024-03-08T03:48:37;31.00;;;28.60;;
58982;SDS011;44771;49.982;8.560;2024-03-08T03:53:40;30.58;;;28.08;;
58982;SDS011;44771;49.982;8.560;2024-03-08T03:58:42;31.30;;;28.05;;
58982;SDS011;44771;49.982;8.560;2024-03-08T04:03:44;32.75;;;25.70;;
58982;SDS011;44771;49.982;8.560;2024-03-08T04:08:47;29.92;;;27.92;;
58982;SDS011;44771;49.982;8.560;2024-03-08T04:13:49;29.80;;;27.80;;
58982;SDS011;44771;49.982;8.560;2024-03-08T04:18:51;30.60;;;27.80;;
58982;SDS011;44771;49.982;8.560;2024-03-08T04:23:54;29.85;;;27.80;;
58982;SDS011;44771;49.982;8.560;2024-03-08T04:28:56;28.67;;;26.75;;
58982;SDS011;44771;49.982;8.560;2024-03-08T04:33:57;31.65;;;28.75;;
58982;SDS011;44771;49.982;8.560;2024-03-08T04:39:01;30.55;;;27.62;;
58982;SDS011;44771;49.982;8.560;2024-03-08T04:44:02;30.98;;;28.50;;
58982;SDS011;44771;49.982;8.560;2024-03-08T04:49:04;31.05;;;28.65;;
58982;SDS011;44771;49.982;8.560;2024-03-08T04:54:08;29.67;;;27.45;;
58982;SDS011;44771;49.982;8.560;2024-03-08T04:59:09;33.88;;;30.88;;
58982;SDS011;44771;49.982;8.560;2024-03-08T05:04:11;30.30;;;27.58;;
58982;SDS011;44771;49.982;8.560;2024-03-08T05:09:15;28.80;;;26.67;;
58982;SDS011;44771;49.982;8.560;2024-03-08T05:14:17;32.00;;;29.55;;
58982;SDS011;44771;49.982;8.560;2024-03-08T05:19:19;30.67;;;28.48;;
58982;SDS011;44771;49.982;8.560;2024-03-08T05:24:22;30.27;;;27.98;;
58982;SDS011;44771;49.982;8.560;2024-03-08T05:29:24;30.35;;;28.00;;
58982;SDS011;44771;49.982;8.560;2024-03-08T05:34:26;31.33;;;28.65;;
58982;SDS011;44771;49.982;8.560;2024-03-08T05:39:29;34.42;;;30.85;;
58982;SDS011;44771;49.982;8.560;2024-03-08T05:44:31;30.70;;;28.33;;
58982;SDS011;44771;49.982;8.560;2024-03-08T05:49:33;29.33;;;26.67;;
58982;SDS011;44771;49.982;8.560;2024-03-08T05:54:36;31.10;;;28.20;;
58982;SDS011;44771;49.982;8.560;2024-03-08T05:59:38;32.95;;;29.85;;
58982;SDS011;44771;49.982;8.560;2024-03-08T06:04:40;29.17;;;26.87;;
58982;SDS011;44771;49.982;8.560;2024-03-08T06:09:43;30.88;;;28.27;;
58982;SDS011;44771;49.982;8.560;2024-03-08T06:14:45;29.48;;;27.25;;
58982;SDS011;44771;49.982;8.560;2024-03-08T06:19:47;31.52;;;28.75;;
58982;SDS011;44771;49.982;8.560;2024-03-08T06:24:50;31.10;;;28.55;;
58982;SDS011;44771;49.982;8.560;2024-03-08T06:29:51;28.55;;;26.58;;
58982;SDS011;44771;49.982;8.560;2024-03-08T06:34:53;33.25;;;30.65;;
58982;SDS011;44771;49.982;8.560;2024-03-08T06:39:56;34.60;;;31.60;;
58982;SDS011;44771;49.982;8.560;2024-03-08T06:44:58;31.80;;;28.55;;
58982;SDS011;44771;49.982;8.560;2024-03-08T06:50:00;33.53;;;30.27;;
58982;SDS011;44771;49.982;8.560;2024-03-08T06:55:04;30.95;;;28.55;;
58982;SDS011;44771;49.982;8.560;2024-03-08T07:00:07;31.85;;;29.58;;
58982;SDS011;44771;49.982;8.560;2024-03-08T07:05:10;32.35;;;29.83;;
58982;SDS011;44771;49.982;8.560;2024-03-08T07:10:14;31.30;;;28.87;;
58982;SDS011;44771;49.982;8.560;2024-03-08T07:15:16;30.58;;;28.27;;
58982;SDS011;44771;49.982;8.560;2024-03-08T07:20:18;34.17;;;31.37;;
58982;SDS011;44771;49.982;8.560;2024-03-08T07:25:21;35.83;;;32.70;;
58982;SDS011;44771;49.982;8.560;2024-03-08T07:30:24;28.23;;;26.30;;
58982;SDS011;44771;49.982;8.560;2024-03-08T07:35:30;30.02;;;27.30;;
58982;SDS011;44771;49.982;8.560;2024-03-08T07:40:36;31.40;;;29.00;;
58982;SDS011;44771;49.982;8.560;2024-03-08T07:45:38;29.98;;;27.37;;
58982;SDS011;44771;49.982;8.560;2024-03-08T07:50:40;32.05;;;29.42;;
58982;SDS011;44771;49.982;8.560;2024-03-08T07:55:43;31.10;;;28.02;;
58982;SDS011;44771;49.982;8.560;2024-03-08T08:00:45;33.95;;;30.12;;
58982;SDS011;44771;49.982;8.560;2024-03-08T08:05:47;28.27;;;26.33;;
58982;SDS011;44771;49.982;8.560;2024-03-08T08:10:50;32.72;;;29.87;;
58982;SDS011;44771;49.982;8.560;2024-03-08T08:15:52;30.37;;;27.80;;
58982;SDS011;44771;49.982;8.560;2024-03-08T08:20:54;30.88;;;28.30;;
58982;SDS011;44771;49.982;8.560;2024-03-08T08:25:57;30.12;;;27.13;;
58982;SDS011;44771;49.982;8.560;2024-03-08T08:30:59;29.85;;;27.08;;
58982;SDS011;44771;49.982;8.560;2024-03-08T08:36:01;31.23;;;28.15;;
58982;SDS011;44771;49.982;8.560;2024-03-08T08:41:05;28.73;;;26.48;;
58982;SDS011;44771;49.982;8.560;2024-03-08T08:46:07;30.17;;;27.13;;
58982;SDS011;44771;49.982;8.560;2024-03-08T08:51:09;28.75;;;26.15;;
58982;SDS011;44771;49.982;8.560;2024-03-08T08:56:12;28.42;;;26.33;;
58982;SDS011;44771;49.982;8.560;2024-03-08T09:01:14;32.45;;;27.15;;
58982;SDS011;44771;49.982;8.560;2024-03-08T09:06:16;28.10;;;25.23;;
58982;SDS011;44771;49.982;8.560;2024-03-08T09:11:19;29.52;;;26.52;;
58982;SDS011;44771;49.982;8.560;2024-03-08T09:16:21;26.52;;;24.08;;
58982;SDS011;44771;49.982;8.560;2024-03-08T09:21:23;27.08;;;24.87;;
58982;SDS011;44771;49.982;8.560;2024-03-08T09:26:26;28.77;;;25.67;;
58982;SDS011;44771;49.982;8.560;2024-03-08T09:36:32;25.52;;;23.40;;
58982;SDS011;44771;49.982;8.560;2024-03-08T09:41:35;26.87;;;24.75;;
58982;SDS011;44771;49.982;8.560;2024-03-08T09:46:37;26.55;;;24.37;;
58982;SDS011;44771;49.982;8.560;2024-03-08T09:51:39;26.48;;;24.60;;
58982;SDS011;44771;49.982;8.560;2024-03-08T09:56:43;26.48;;;24.70;;
58982;SDS011;44771;49.982;8.560;2024-03-08T10:01:46;28.43;;;26.23;;
58982;SDS011;44771;49.982;8.560;2024-03-08T10:06:48;26.35;;;23.83;;
58982;SDS011;44771;49.982;8.560;2024-03-08T10:11:51;27.40;;;25.40;;
58982;SDS011;44771;49.982;8.560;2024-03-08T10:16:57;26.58;;;24.50;;
58982;SDS011;44771;49.982;8.560;2024-03-08T10:21:59;27.02;;;24.75;;
58982;SDS011;44771;49.982;8.560;2024-03-08T10:27:03;28.87;;;26.58;;
58982;SDS011;44771;49.982;8.560;2024-03-08T10:32:05;24.20;;;22.35;;
58982;SDS011;44771;49.982;8.560;2024-03-08T10:37:09;25.75;;;23.60;;
58982;SDS011;44771;49.982;8.560;2024-03-08T10:42:24;27.75;;;25.42;;
58982;SDS011;44771;49.982;8.560;2024-03-08T10:47:30;27.95;;;25.88;;
58982;SDS011;44771;49.982;8.560;2024-03-08T10:52:35;28.15;;;25.73;;
58982;SDS011;44771;49.982;8.560;2024-03-08T10:57:38;26.67;;;24.52;;
58982;SDS011;44771;49.982;8.560;2024-03-08T11:02:43;28.70;;;26.52;;
58982;SDS011;44771;49.982;8.560;2024-03-08T11:07:45;24.75;;;23.08;;
58982;SDS011;44771;49.982;8.560;2024-03-08T11:12:48;25.50;;;23.65;;
58982;SDS011;44771;49.982;8.560;2024-03-08T11:17:50;26.02;;;23.83;;
58982;SDS011;44771;49.982;8.560;2024-03-08T11:22:53;25.42;;;23.20;;
58982;SDS011;44771;49.982;8.560;2024-03-08T11:28:07;26.65;;;24.50;;
58982;SDS011;44771;49.982;8.560;2024-03-08T11:33:11;25.25;;;23.33;;
58982;SDS011;44771;49.982;8.560;2024-03-08T11:38:14;24.55;;;22.83;;
58982;SDS011;44771;49.982;8.560;2024-03-08T11:43:17;29.63;;;24.80;;
58982;SDS011;44771;49.982;8.560;2024-03-08T11:48:19;28.05;;;25.58;;
58982;SDS011;44771;49.982;8.560;2024-03-08T11:53:21;28.05;;;25.73;;
58982;SDS011;44771;49.982;8.560;2024-03-08T11:58:24;27.45;;;25.05;;
58982;SDS011;44771;49.982;8.560;2024-03-08T12:03:26;26.58;;;24.05;;
58982;SDS011;44771;49.982;8.560;2024-03-08T12:08:27;28.40;;;24.77;;
58982;SDS011;44771;49.982;8.560;2024-03-08T12:13:31;27.13;;;25.00;;
58982;SDS011;44771;49.982;8.560;2024-03-08T12:18:34;27.67;;;25.40;;
58982;SDS011;44771;49.982;8.560;2024-03-08T12:23:40;26.37;;;24.07;;
58982;SDS011;44771;49.982;8.560;2024-03-08T12:28:44;27.23;;;24.70;;
58982;SDS011;44771;49.982;8.560;2024-03-08T12:33:49;25.77;;;23.48;;
58982;SDS011;44771;49.982;8.560;2024-03-08T12:38:56;27.05;;;24.48;;
58982;SDS011;44771;49.982;8.560;2024-03-08T12:44:01;27.37;;;25.15;;
58982;SDS011;44771;49.982;8.560;2024-03-08T12:49:03;27.40;;;24.77;;
58982;SDS011;44771;49.982;8.560;2024-03-08T12:54:05;25.33;;;23.42;;
58982;SDS011;44771;49.982;8.560;2024-03-08T12:59:09;25.17;;;23.38;;
58982;SDS011;44771;49.982;8.560;2024-03-08T13:04:12;26.85;;;24.85;;
58982;SDS011;44771;49.982;8.560;2024-03-08T13:09:14;27.27;;;24.73;;
58982;SDS011;44771;49.982;8.560;2024-03-08T13:14:17;27.95;;;25.52;;
58982;SDS011;44771;49.982;8.560;2024-03-08T13:19:19;24.65;;;22.10;;
58982;SDS011;44771;49.982;8.560;2024-03-08T13:24:20;23.85;;;22.05;;
58982;SDS011;44771;49.982;8.560;2024-03-08T13:29:24;26.30;;;23.98;;
58982;SDS011;44771;49.982;8.560;2024-03-08T13:34:25;23.20;;;21.60;;
58982;SDS011;44771;49.982;8.560;2024-03-08T13:39:27;26.27;;;24.27;;
58982;SDS011;44771;49.982;8.560;2024-03-08T13:44:30;26.12;;;24.00;;
58982;SDS011;44771;49.982;8.560;2024-03-08T13:49:32;27.27;;;24.40;;
58982;SDS011;44771;49.982;8.560;2024-03-08T13:54:34;26.33;;;23.80;;
58982;SDS011;44771;49.982;8.560;2024-03-08T13:59:37;26.60;;;24.02;;
58982;SDS011;44771;49.982;8.560;2024-03-08T14:04:39;26.25;;;23.90;;
58982;SDS011;44771;49.982;8.560;2024-03-08T14:09:41;26.23;;;23.98;;
58982;SDS011;44771;49.982;8.560;2024-03-08T14:14:44;25.83;;;23.87;;
58982;SDS011;44771;49.982;8.560;2024-03-08T14:19:46;26.05;;;23.95;;
58982;SDS011;44771;49.982;8.560;2024-03-08T14:24:48;25.08;;;22.92;;
58982;SDS011;44771;49.982;8.560;2024-03-08T14:29:51;26.48;;;23.98;;
58982;SDS011;44771;49.982;8.560;2024-03-08T14:34:53;24.50;;;22.40;;
58982;SDS011;44771;49.982;8.560;2024-03-08T14:39:57;25.67;;;23.38;;
58982;SDS011;44771;49.982;8.560;2024-03-08T14:45:00;25.65;;;23.42;;
58982;SDS011;44771;49.982;8.560;2024-03-08T14:50:02;25.58;;;23.38;;
58982;SDS011;44771;49.982;8.560;2024-03-08T14:55:04;25.58;;;23.60;;
58982;SDS011;44771;49.982;8.560;2024-03-08T15:00:08;25.70;;;22.83;;
58982;SDS011;44771;49.982;8.560;2024-03-08T15:05:11;27.37;;;25.00;;
58982;SDS011;44771;49.982;8.560;2024-03-08T15:10:15;24.10;;;22.37;;
58982;SDS011;44771;49.982;8.560;2024-03-08T15:15:18;26.40;;;23.80;;
58982;SDS011;44771;49.982;8.560;2024-03-08T15:20:20;26.37;;;24.23;;
58982;SDS011;44771;49.982;8.560;2024-03-08T15:25:21;27.15;;;24.35;;
58982;SDS011;44771;49.982;8.560;2024-03-08T15:30:25;24.10;;;22.17;;
58982;SDS011;44771;49.982;8.560;2024-03-08T15:35:26;24.25;;;22.58;;
58982;SDS011;44771;49.982;8.560;2024-03-08T15:40:28;24.30;;;22.17;;
58982;SDS011;44771;49.982;8.560;2024-03-08T15:45:31;25.45;;;23.17;;
58982;SDS011;44771;49.982;8.560;2024-03-08T15:50:33;26.62;;;24.40;;
58982;SDS011;44771;49.982;8.560;2024-03-08T15:55:35;24.33;;;22.60;;
58982;SDS011;44771;49.982;8.560;2024-03-08T16:00:38;27.35;;;24.60;;
58982;SDS011;44771;49.982;8.560;2024-03-08T16:05:40;26.10;;;23.73;;
58982;SDS011;44771;49.982;8.560;2024-03-08T16:10:42;21.17;;;19.58;;
58982;SDS011;44771;49.982;8.560;2024-03-08T16:15:49;24.12;;;22.27;;
58982;SDS011;44771;49.982;8.560;2024-03-08T16:20:53;22.55;;;20.92;;
58982;SDS011;44771;49.982;8.560;2024-03-08T16:25:55;24.42;;;22.35;;
58982;SDS011;44771;49.982;8.560;2024-03-08T16:30:59;22.40;;;20.62;;
58982;SDS011;44771;49.982;8.560;2024-03-08T16:36:01;23.50;;;21.73;;
58982;SDS011;44771;49.982;8.560;2024-03-08T16:41:03;23.67;;;21.90;;
58982;SDS011;44771;49.982;8.560;2024-03-08T16:46:06;24.48;;;22.67;;
58982;SDS011;44771;49.982;8.560;2024-03-08T16:51:08;23.70;;;21.90;;
58982;SDS011;44771;49.982;8.560;2024-03-08T16:56:10;23.83;;;21.87;;
58982;SDS011;44771;49.982;8.560;2024-03-08T17:01:13;25.15;;;23.20;;
58982;SDS011;44771;49.982;8.560;2024-03-08T17:06:15;24.65;;;23.00;;
58982;SDS011;44771;49.982;8.560;2024-03-08T17:11:17;24.30;;;22.23;;
58982;SDS011;44771;49.982;8.560;2024-03-08T17:16:24;24.95;;;22.87;;
58982;SDS011;44771;49.982;8.560;2024-03-08T17:21:26;23.17;;;21.47;;
58982;SDS011;44771;49.982;8.560;2024-03-08T17:26:28;23.25;;;21.58;;
58982;SDS011;44771;49.982;8.560;2024-03-08T17:31:32;22.95;;;21.25;;
58982;SDS011;44771;49.982;8.560;2024-03-08T17:36:33;25.73;;;23.73;;
58982;SDS011;44771;49.982;8.560;2024-03-08T17:41:35;24.70;;;22.70;;
58982;SDS011;44771;49.982;8.560;2024-03-08T17:46:39;24.20;;;22.50;;
58982;SDS011;44771;49.982;8.560;2024-03-08T17:51:40;26.37;;;24.77;;
58982;SDS011;44771;49.982;8.560;2024-03-08T17:56:43;24.25;;;21.92;;
58982;SDS011;44771;49.982;8.560;2024-03-08T18:01:46;24.25;;;22.42;;
58982;SDS011;44771;49.982;8.560;2024-03-08T18:06:48;23.62;;;22.13;;
58982;SDS011;44771;49.982;8.560;2024-03-08T18:11:53;24.65;;;23.00;;
58982;SDS011;44771;49.982;8.560;2024-03-08T18:16:57;24.37;;;22.98;;
58982;SDS011;44771;49.982;8.560;2024-03-08T18:21:59;24.52;;;22.85;;
58982;SDS011;44771;49.982;8.560;2024-03-08T18:27:00;24.48;;;22.08;;
58982;SDS011;44771;49.982;8.560;2024-03-08T18:32:04;23.65;;;22.25;;
58982;SDS011;44771;49.982;8.560;2024-03-08T18:37:06;26.63;;;24.67;;
58982;SDS011;44771;49.982;8.560;2024-03-08T18:42:08;25.90;;;24.02;;
58982;SDS011;44771;49.982;8.560;2024-03-08T18:47:11;25.35;;;23.50;;
58982;SDS011;44771;49.982;8.560;2024-03-08T18:52:13;25.92;;;23.80;;
58982;SDS011;44771;49.982;8.560;2024-03-08T18:57:15;25.70;;;23.85;;
58982;SDS011;44771;49.982;8.560;2024-03-08T19:02:18;25.27;;;23.42;;
58982;SDS011;44771;49.982;8.560;2024-03-08T19:07:20;25.70;;;23.60;;
58982;SDS011;44771;49.982;8.560;2024-03-08T19:12:22;25.98;;;23.95;;
58982;SDS011;44771;49.982;8.560;2024-03-08T19:17:25;26.55;;;24.25;;
58982;SDS011;44771;49.982;8.560;2024-03-08T19:22:27;27.85;;;25.92;;
58982;SDS011;44771;49.982;8.560;2024-03-08T19:27:29;25.17;;;23.52;;
58982;SDS011;44771;49.982;8.560;2024-03-08T19:32:32;26.15;;;24.00;;
58982;SDS011;44771;49.982;8.560;2024-03-08T19:37:34;27.37;;;25.08;;
58982;SDS011;44771;49.982;8.560;2024-03-08T19:42:37;25.48;;;23.75;;
58982;SDS011;44771;49.982;8.560;2024-03-08T19:47:40;26.40;;;24.77;;
58982;SDS011;44771;49.982;8.560;2024-03-08T19:52:42;26.55;;;24.55;;
58982;SDS011;44771;49.982;8.560;2024-03-08T19:57:46;26.55;;;24.27;;
58982;SDS011;44771;49.982;8.560;2024-03-08T20:02:53;25.23;;;23.40;;
58982;SDS011;44771;49.982;8.560;2024-03-08T20:07:56;26.73;;;25.10;;
58982;SDS011;44771;49.982;8.560;2024-03-08T20:12:58;24.37;;;22.45;;
58982;SDS011;44771;49.982;8.560;2024-03-08T20:18:01;25.25;;;23.35;;
58982;SDS011;44771;49.982;8.560;2024-03-08T20:23:03;27.90;;;24.12;;
58982;SDS011;44771;49.982;8.560;2024-03-08T20:28:05;25.80;;;24.20;;
58982;SDS011;44771;49.982;8.560;2024-03-08T20:33:09;26.75;;;24.87;;
58982;SDS011;44771;49.982;8.560;2024-03-08T20:38:11;27.00;;;24.35;;
58982;SDS011;44771;49.982;8.560;2024-03-08T20:43:13;28.08;;;25.73;;
58982;SDS011;44771;49.982;8.560;2024-03-08T20:48:16;26.98;;;24.85;;
58982;SDS011;44771;49.982;8.560;2024-03-08T20:53:18;27.08;;;25.15;;
58982;SDS011;44771;49.982;8.560;2024-03-08T20:58:21;26.58;;;24.73;;
58982;SDS011;44771;49.982;8.560;2024-03-08T21:03:24;26.27;;;24.20;;
58982;SDS011;44771;49.982;8.560;2024-03-08T21:08:27;27.10;;;24.80;;
58982;SDS011;44771;49.982;8.560;2024-03-08T21:13:29;28.23;;;26.02;;
58982;SDS011;44771;49.982;8.560;2024-03-08T21:18:32;26.77;;;24.90;;
58982;SDS011;44771;49.982;8.560;2024-03-08T21:23:34;28.75;;;26.70;;
58982;SDS011;44771;49.982;8.560;2024-03-08T21:28:36;29.63;;;26.73;;
58982;SDS011;44771;49.982;8.560;2024-03-08T21:33:40;30.08;;;28.12;;
58982;SDS011;44771;49.982;8.560;2024-03-08T21:38:41;27.00;;;25.42;;
58982;SDS011;44771;49.982;8.560;2024-03-08T21:43:43;27.25;;;25.37;;
58982;SDS011;44771;49.982;8.560;2024-03-08T21:48:47;26.65;;;24.75;;
58982;SDS011;44771;49.982;8.560;2024-03-08T21:53:49;28.33;;;26.30;;
58982;SDS011;44771;49.982;8.560;2024-03-08T21:58:50;27.75;;;25.17;;
58982;SDS011;44771;49.982;8.560;2024-03-08T22:03:53;29.30;;;26.55;;
58982;SDS011;44771;49.982;8.560;2024-03-08T22:08:55;28.77;;;26.58;;
58982;SDS011;44771;49.982;8.560;2024-03-08T22:13:57;27.87;;;25.75;;
58982;SDS011;44771;49.982;8.560;2024-03-08T22:19:00;27.50;;;25.35;;
58982;SDS011;44771;49.982;8.560;2024-03-08T22:24:02;29.50;;;27.10;;
58982;SDS011;44771;49.982;8.560;2024-03-08T22:29:05;26.62;;;24.70;;
58982;SDS011;44771;49.982;8.560;2024-03-08T22:34:08;27.52;;;25.70;;
58982;SDS011;44771;49.982;8.560;2024-03-08T22:39:09;28.20;;;26.10;;
58982;SDS011;44771;49.982;8.560;2024-03-08T22:44:11;27.02;;;25.27;;
58982;SDS011;44771;49.982;8.560;2024-03-08T22:49:14;25.67;;;23.70;;
58982;SDS011;44771;49.982;8.560;2024-03-08T22:54:16;27.50;;;25.17;;
58982;SDS011;44771;49.982;8.560;2024-03-08T22:59:18;27.80;;;25.90;;
58982;SDS011;44771;49.982;8.560;2024-03-08T23:04:21;26.55;;;24.60;;
58982;SDS011;44771;49.982;8.560;2024-03-08T23:09:23;28.95;;;27.25;;
58982;SDS011;44771;49.982;8.560;2024-03-08T23:14:25;28.80;;;27.17;;
58982;SDS011;44771;49.982;8.560;2024-03-08T23:19:28;27.62;;;25.92;;
58982;SDS011;44771;49.982;8.560;2024-03-08T23:24:30;29.27;;;27.42;;
58982;SDS011;44771;49.982;8.560;2024-03-08T23:29:32;29.17;;;26.98;;
58982;SDS011;44771;49.982;8.560;2024-03-08T23:34:35;28.65;;;23.85;;
58982;SDS011;44771;49.982;8.560;2024-03-08T23:39:37;25.85;;;24.15;;
58982;SDS011;44771;49.982;8.560;2024-03-08T23:44:38;28.02;;;25.77;;
58982;SDS011;44771;49.982;8.560;2024-03-08T23:49:43;25.75;;;23.87;;
58982;SDS011;44771;49.982;8.560;2024-03-08T23:54:45;29.08;;;26.73;;
58982;SDS011;44771;49.982;8.560;2024-03-08T23:59:47;29.85;;;27.83;;
